Time;durP1;ratioP1;P1;durP2;ratioP2;P2;SDS_P1;SDS_P2;PMS_P1;PMS_P2;Temp;Humidity;BMP_temperature;BMP_pressure;BME280_temperature;BME280_humidity;BME280_pressure;Samples;Min_cycle;Max_cycle;Signal;HPM_P1;HPM_P2
2022/07/18 00:03:54;;;;;;;1.85;1.00;;;;;;;18.52;35.72;100686.28;7739990;32;40354;-73
2022/07/18 00:08:10;;;;;;;4.25;1.02;;;;;;;18.74;34.26;100677.31;7756439;32;40179;-75
2022/07/18 00:12:26;;;;;;;3.47;0.93;;;;;;;18.32;34.81;100682.75;7766495;32;38030;-74
2022/07/18 00:16:42;;;;;;;1.05;0.77;;;;;;;18.22;35.04;100688.47;7747769;32;37110;-74
2022/07/18 00:20:58;;;;;;;4.72;0.85;;;;;;;18.27;35.05;100684.81;7739345;32;39411;-74
2022/07/18 00:25:14;;;;;;;1.00;0.90;;;;;;;17.70;36.50;100698.63;7747684;32;40064;-74
2022/07/18 00:29:30;;;;;;;3.20;1.17;;;;;;;18.04;35.97;100695.66;7765939;32;38648;-74
2022/07/18 00:33:46;;;;;;;1.00;0.90;;;;;;;17.89;37.14;100695.88;7766305;32;36785;-75
2022/07/18 00:38:03;;;;;;;0.98;0.90;;;;;;;18.01;37.50;100697.06;7739530;32;39844;-75
2022/07/18 00:42:20;;;;;;;3.75;1.00;;;;;;;17.68;39.13;100695.31;7739054;32;39956;-74
2022/07/18 00:46:36;;;;;;;1.33;0.85;;;;;;;17.75;39.21;100696.59;7766838;32;38747;-74
2022/07/18 00:50:52;;;;;;;2.72;1.08;;;;;;;17.72;39.19;100704.66;7765960;32;36775;-74
2022/07/18 00:55:09;;;;;;;2.03;1.20;;;;;;;17.51;39.47;100710.44;7758073;32;39079;-74
2022/07/18 01:01:42;;;;;;;1.80;0.95;;;;;;;17.61;39.09;100713.06;7738798;32;40222;-74
2022/07/18 01:04:01;;;;;;;1.12;1.02;;;;;;;17.68;39.34;100711.84;7748342;32;38699;-73
2022/07/18 01:08:17;;;;;;;3.42;1.02;;;;;;;17.47;40.33;100712.13;7765742;32;37186;-73
2022/07/18 01:12:33;;;;;;;2.45;1.20;;;;;;;17.52;40.45;100709.31;7777217;32;40028;-74
2022/07/18 01:16:49;;;;;;;2.75;1.10;;;;;;;17.47;40.58;100709.38;7755889;32;39879;-73
2022/07/18 01:21:06;;;;;;;2.75;1.12;;;;;;;17.67;38.97;100705.53;7765314;32;38689;-74
2022/07/18 01:25:22;;;;;;;1.00;1.00;;;;;;;17.24;39.69;100711.84;7756797;32;37191;-75
2022/07/18 01:29:39;;;;;;;3.00;1.00;;;;;;;17.50;38.05;100710.72;7738360;32;39391;-74
2022/07/18 01:33:55;;;;;;;1.23;0.88;;;;;;;17.31;37.87;100716.22;7738486;32;40076;-74
2022/07/18 01:38:12;;;;;;;1.75;1.15;;;;;;;17.22;38.21;100716.03;7764470;32;37917;-73
2022/07/18 01:42:28;;;;;;;1.67;1.00;;;;;;;17.20;37.81;100710.00;7764044;32;36748;-74
2022/07/18 01:46:44;;;;;;;1.85;1.20;;;;;;;16.96;38.35;100710.00;7765341;32;40562;-74
2022/07/18 01:51:00;;;;;;;3.28;1.30;;;;;;;17.00;37.96;100703.59;7765269;32;40034;-73
2022/07/18 01:55:16;;;;;;;1.33;0.70;;;;;;;16.81;38.26;100716.47;7744735;32;39145;-74
2022/07/18 01:59:32;;;;;;;1.65;1.10;;;;;;;17.02;38.20;100717.09;7738128;32;37658;-74
2022/07/18 02:03:48;;;;;;;2.95;1.17;;;;;;;17.09;38.17;100714.78;7758111;32;39841;-74
2022/07/18 02:08:04;;;;;;;2.05;1.20;;;;;;;16.61;39.16;100703.69;7764929;32;39750;-74
2022/07/18 02:12:21;;;;;;;1.10;1.00;;;;;;;16.57;39.46;100716.41;7753790;32;37750;-74
2022/07/18 02:16:37;;;;;;;2.70;1.30;;;;;;;16.40;39.74;100723.19;7737989;32;37787;-75
2022/07/18 02:20:53;;;;;;;1.00;0.90;;;;;;;16.51;39.20;100716.47;7738764;32;40176;-74
2022/07/18 02:25:10;;;;;;;1.08;0.95;;;;;;;16.52;39.17;100726.38;7764752;32;39992;-74
2022/07/18 02:29:26;;;;;;;1.50;1.08;;;;;;;16.73;38.47;100722.59;7761704;32;38034;-73
2022/07/18 02:33:42;;;;;;;4.70;1.50;;;;;;;16.62;38.66;100730.12;7739921;32;38210;-74
2022/07/18 02:37:58;;;;;;;1.75;1.02;;;;;;;16.43;38.73;100735.53;7737356;32;40506;-74
2022/07/18 02:42:14;;;;;;;2.22;1.12;;;;;;;16.29;39.56;100738.13;7757451;32;40127;-74
2022/07/18 02:46:30;;;;;;;2.45;1.10;;;;;;;16.37;39.16;100732.00;7762854;32;37704;-73
2022/07/18 02:50:47;;;;;;;3.50;1.10;;;;;;;16.44;39.11;100735.25;7755155;32;37202;-74
2022/07/18 02:55:03;;;;;;;1.67;1.00;;;;;;;16.39;39.05;100727.03;7764376;32;39469;-73
2022/07/18 02:59:20;;;;;;;2.95;1.20;;;;;;;16.68;41.60;100724.28;7743099;32;39899;-74
2022/07/18 03:03:36;;;;;;;3.72;1.35;;;;;;;16.29;39.93;100729.88;7737114;32;37648;-74
2022/07/18 03:07:52;;;;;;;2.60;1.00;;;;;;;16.53;39.22;100719.75;7749210;32;37699;-75
2022/07/18 03:12:09;;;;;;;1.92;1.20;;;;;;;16.30;39.52;100729.56;7750539;32;39818;-75
2022/07/18 03:16:25;;;;;;;2.12;1.25;;;;;;;16.39;39.45;100728.97;7737519;32;40834;-74
2022/07/18 03:20:41;;;;;;;3.97;1.50;;;;;;;16.40;41.20;100728.69;7753417;32;38878;-74
2022/07/18 03:24:57;;;;;;;2.40;1.00;;;;;;;16.51;40.38;100723.91;7763701;32;37070;-75
2022/07/18 03:29:13;;;;;;;1.67;0.90;;;;;;;16.36;40.26;100727.59;7742275;32;40149;-75
2022/07/18 03:33:29;;;;;;;1.73;1.20;;;;;;;16.30;41.63;100726.00;7738402;32;40109;-75
2022/07/18 03:37:45;;;;;;;4.95;1.27;;;;;;;16.11;41.42;100723.94;7747321;32;37904;-72
2022/07/18 03:42:01;;;;;;;1.55;0.98;;;;;;;16.29;41.05;100724.34;7763087;32;37928;-73
2022/07/18 03:46:17;;;;;;;3.05;1.20;;;;;;;16.55;39.73;100733.22;7761233;32;39372;-73
2022/07/18 03:50:33;;;;;;;2.80;1.10;;;;;;;16.49;40.17;100743.47;7735976;32;39998;-73
2022/07/18 03:54:49;;;;;;;1.77;1.10;;;;;;;16.44;40.46;100742.69;7735843;32;37915;-74
2022/07/18 03:59:05;;;;;;;1.73;1.27;;;;;;;16.71;39.88;100745.75;7749485;32;37693;-74
2022/07/18 04:03:22;;;;;;;4.22;1.30;;;;;;;16.35;40.66;100750.75;7742489;32;39272;-74
2022/07/18 04:07:38;;;;;;;3.83;1.45;;;;;;;16.64;40.07;100758.19;7736595;32;40871;-75
2022/07/18 04:11:55;;;;;;;2.42;1.45;;;;;;;16.64;40.27;100755.44;7735592;32;38504;-74
2022/07/18 04:16:11;;;;;;;2.08;1.05;;;;;;;16.80;40.44;100750.59;7735268;32;37959;-74
2022/07/18 04:20:28;;;;;;;1.87;1.15;;;;;;;16.98;40.20;100754.59;7737229;32;40103;-73
2022/07/18 04:24:44;;;;;;;2.55;1.35;;;;;;;17.03;39.83;100755.34;7739263;32;40781;-74
2022/07/18 04:29:08;;;;;;;5.03;1.40;;;;;;;17.22;40.12;100758.19;7757873;32;38810;-74
2022/07/18 04:33:24;;;;;;;3.28;1.33;;;;;;;17.00;41.29;100768.91;7765872;32;38144;-75
2022/07/18 04:37:40;;;;;;;2.42;1.40;;;;;;;17.05;44.66;100766.09;7745858;32;39445;-74
2022/07/18 04:41:56;;;;;;;2.25;1.00;;;;;;;17.10;45.09;100760.53;7753450;32;39630;-74
2022/07/18 04:46:12;;;;;;;2.72;1.40;;;;;;;17.28;44.68;100761.69;7749291;32;37575;-75
2022/07/18 04:50:29;;;;;;;2.80;1.20;;;;;;;17.28;43.81;100758.94;7765960;32;36755;-74
2022/07/18 04:54:45;;;;;;;1.62;1.20;;;;;;;17.50;42.05;100755.66;7764318;32;40085;-73
2022/07/18 04:59:01;;;;;;;6.40;1.30;;;;;;;17.81;40.85;100761.56;7738663;32;39895;-73
2022/07/18 05:03:18;;;;;;;1.70;0.90;;;;;;;18.06;40.15;100756.03;7741564;32;38691;-73
2022/07/18 05:07:34;;;;;;;2.53;0.98;;;;;;;18.20;39.02;100749.47;7750635;32;37142;-74
2022/07/18 05:11:50;;;;;;;3.85;1.10;;;;;;;18.56;38.01;100761.88;7749957;32;39447;-73
2022/07/18 05:16:06;;;;;;;3.08;1.42;;;;;;;18.68;37.45;100756.69;7765498;32;39965;-74
2022/07/18 05:20:24;;;;;;;1.58;1.02;;;;;;;18.85;38.30;100758.94;7756657;32;39279;-73
2022/07/18 05:24:40;;;;;;;2.58;0.98;;;;;;;19.30;36.76;100758.38;7738372;32;37872;-74
2022/07/18 05:28:56;;;;;;;3.55;1.08;;;;;;;19.52;38.71;100757.62;7751518;32;143472;-76
2022/07/18 05:33:12;;;;;;;8.88;1.30;;;;;;;19.33;39.14;100754.97;7740108;32;39986;-75
2022/07/18 05:37:28;;;;;;;1.83;1.10;;;;;;;19.34;39.84;100759.37;7738332;32;37989;-77
2022/07/18 05:41:44;;;;;;;3.15;1.35;;;;;;;19.74;38.72;100759.66;7738433;32;37909;-76
2022/07/18 05:46:00;;;;;;;6.82;1.37;;;;;;;19.99;38.62;100749.16;7744303;32;39310;-77
2022/07/18 05:50:16;;;;;;;2.65;1.23;;;;;;;20.18;38.18;100740.69;7749164;32;39661;-76
2022/07/18 05:54:33;;;;;;;2.97;1.20;;;;;;;20.43;36.88;100740.06;7739124;32;37659;-76
2022/07/18 05:58:49;;;;;;;4.25;1.20;;;;;;;20.88;35.43;100742.00;7746525;32;37117;-77
2022/07/18 06:03:05;;;;;;;3.58;1.40;;;;;;;21.46;33.04;100729.03;7743618;32;39262;-76
2022/07/18 06:07:21;;;;;;;3.62;1.20;;;;;;;21.69;31.87;100732.50;7738205;32;40046;-80
2022/07/18 06:11:38;;;;;;;2.15;1.15;;;;;;;22.17;30.84;100727.97;7738124;32;38800;-79
2022/07/18 06:15:54;;;;;;;3.00;1.25;;;;;;;22.37;30.38;100723.75;7738173;32;37134;-80
2022/07/18 06:20:10;;;;;;;7.40;1.33;;;;;;;22.42;29.44;100723.56;7737904;32;39300;-81
2022/07/18 06:24:27;;;;;;;1.73;0.82;;;;;;;22.45;29.30;100731.22;7737844;32;40518;-81
2022/07/18 06:28:43;;;;;;;2.15;1.00;;;;;;;22.85;28.80;100725.44;7737871;32;38020;-81
2022/07/18 06:33:05;;;;;;;2.20;0.93;;;;;;;23.27;28.47;100715.59;7737689;32;37765;-81
2022/07/18 06:37:21;;;;;;;1.95;1.10;;;;;;;23.46;27.41;100724.34;7737901;32;40049;-81
2022/07/18 06:41:39;;;;;;;3.25;1.10;;;;;;;23.47;27.68;100720.41;7736819;32;40710;-82
2022/07/18 06:45:57;;;;;;;1.33;0.93;;;;;;;23.22;27.55;100709.09;7737559;32;37814;-74
2022/07/18 06:50:14;;;;;;;2.35;1.00;;;;;;;23.57;27.61;100706.09;7737184;32;37839;-74
2022/07/18 06:54:30;;;;;;;2.37;1.10;;;;;;;23.93;26.71;100718.66;7737193;32;39369;-74
2022/07/18 06:58:49;;;;;;;3.42;1.10;;;;;;;23.89;27.16;100712.13;7737049;32;40597;-73
2022/07/18 07:03:05;;;;;;;4.28;1.00;;;;;;;24.17;26.92;100708.78;7736852;32;37900;-76
2022/07/18 07:07:21;;;;;;;7.37;1.40;;;;;;;24.15;26.50;100699.97;7737098;32;37990;-74
2022/07/18 07:11:38;;;;;;;4.53;1.42;;;;;;;24.69;26.22;100699.91;7737019;32;39393;-74
2022/07/18 07:15:54;;;;;;;4.62;1.05;;;;;;;24.98;25.70;100697.28;7736742;32;41140;-74
2022/07/18 07:20:11;;;;;;;4.50;1.10;;;;;;;25.11;25.35;100691.37;7736740;32;38013;-74
2022/07/18 07:24:27;;;;;;;4.07;1.00;;;;;;;25.40;25.15;100686.72;7736468;32;36960;-75
2022/07/18 07:28:43;;;;;;;2.30;1.10;;;;;;;25.69;25.12;100693.19;7736648;32;40120;-76
2022/07/18 07:33:00;;;;;;;13.80;1.50;;;;;;;25.92;24.35;100692.66;7736467;32;40117;-76
2022/07/18 07:37:16;;;;;;;1.52;0.80;;;;;;;26.04;24.18;100678.66;7736208;32;38132;-75
2022/07/18 07:41:32;;;;;;;2.60;1.23;;;;;;;25.84;24.01;100681.28;7736270;32;37877;-76
2022/07/18 07:45:50;;;;;;;3.25;1.23;;;;;;;26.14;23.89;100680.16;7747191;32;39436;-76
2022/07/18 07:50:08;;;;;;;4.28;1.15;;;;;;;26.37;23.40;100671.97;7738278;32;39019;-76
2022/07/18 07:54:24;;;;;;;2.97;1.00;;;;;;;25.93;24.07;100674.72;7736853;32;37618;-76
2022/07/18 07:58:40;;;;;;;2.92;1.08;;;;;;;26.70;23.84;100668.06;7739561;32;37776;-77
2022/07/18 08:03:02;;;;;;;4.18;1.20;;;;;;;26.87;22.70;100667.75;7739534;32;39029;-77
2022/07/18 08:07:20;;;;;;;3.27;1.10;;;;;;;26.71;22.67;100675.31;7740060;32;40013;-75
2022/07/18 08:11:36;;;;;;;2.90;0.90;;;;;;;27.01;21.37;100672.03;7739436;32;37992;-76
2022/07/18 08:15:52;;;;;;;2.97;1.08;;;;;;;26.48;22.60;100689.88;7739662;32;36722;-75
2022/07/18 08:20:09;;;;;;;5.50;1.00;;;;;;;27.15;22.51;100678.00;7739550;32;39545;-75
2022/07/18 08:24:25;;;;;;;6.78;1.60;;;;;;;27.61;21.39;100674.66;7739312;32;40815;-76
2022/07/18 08:28:41;;;;;;;1.33;0.82;;;;;;;27.71;21.84;100677.69;7739233;32;38039;-76
2022/07/18 08:32:58;;;;;;;4.90;1.08;;;;;;;28.07;20.87;100684.06;7738779;32;38073;-75
2022/07/18 08:37:14;;;;;;;2.12;1.12;;;;;;;28.37;20.89;100672.25;7738111;32;39529;-76
2022/07/18 08:41:30;;;;;;;5.68;1.00;;;;;;;28.25;20.42;100666.78;7737889;32;39603;-75
2022/07/18 08:45:47;;;;;;;1.45;0.80;;;;;;;27.99;20.63;100667.47;7735919;32;38878;-76
2022/07/18 08:50:04;;;;;;;2.33;1.00;;;;;;;28.46;19.86;100663.59;7736367;32;37016;-75
2022/07/18 08:54:20;;;;;;;2.92;1.08;;;;;;;28.73;19.44;100664.47;7736216;32;39454;-75
2022/07/18 08:58:38;;;;;;;1.05;0.95;;;;;;;28.98;18.04;100666.91;7738433;32;39941;-76
2022/07/18 09:03:03;;;;;;;3.95;1.08;;;;;;;28.70;18.48;100664.44;7738634;32;38042;-77
2022/07/18 09:07:29;;;;;;;3.12;0.90;;;;;;;29.17;18.76;100666.03;7738499;32;37101;-75
2022/07/18 09:11:57;;;;;;;2.35;1.00;;;;;;;29.04;17.99;100662.59;7738869;32;39488;-75
2022/07/18 09:16:14;;;;;;;2.78;0.80;;;;;;;28.95;17.90;100657.25;7738744;32;40016;-76
2022/07/18 09:20:30;;;;;;;1.50;1.05;;;;;;;28.71;18.62;100655.62;7738635;32;37628;-75
2022/07/18 09:24:55;;;;;;;3.67;0.90;;;;;;;28.42;18.08;100657.94;7738697;32;36795;-76
2022/07/18 09:29:16;;;;;;;2.53;1.00;;;;;;;28.57;18.26;100661.00;7738729;32;40258;-74
2022/07/18 09:33:55;;;;;;;1.98;0.80;;;;;;;28.33;18.43;100656.53;7738014;32;40364;-82
2022/07/18 09:38:14;;;;;;;2.05;1.00;;;;;;;27.70;19.08;100659.28;7738374;32;38100;-81
2022/07/18 09:42:30;;;;;;;6.18;1.27;;;;;;;27.28;18.93;100648.75;7738447;32;36865;-80
2022/07/18 09:47:03;;;;;;;2.00;0.93;;;;;;;27.73;18.89;100643.72;7738208;32;39391;-81
2022/07/18 09:51:19;;;;;;;2.67;0.75;;;;;;;28.40;18.21;100646.25;7738547;32;40265;-80
2022/07/18 09:55:40;;;;;;;7.25;1.08;;;;;;;28.03;18.61;100638.38;7749514;32;38778;-79
2022/07/18 09:59:56;;;;;;;2.85;1.23;;;;;;;29.06;17.56;100643.38;7738252;32;37243;-74
2022/07/18 10:04:13;;;;;;;6.35;0.93;;;;;;;29.06;16.79;100628.53;7749658;32;39828;-74
2022/07/18 10:08:31;;;;;;;2.03;0.95;;;;;;;29.11;16.81;100629.00;7737522;32;40273;-73
2022/07/18 10:12:48;;;;;;;2.92;0.90;;;;;;;27.87;17.77;100632.00;7736183;32;37929;-73
2022/07/18 10:17:04;;;;;;;3.47;1.20;;;;;;;27.78;17.38;100629.41;7746919;32;37752;-74
2022/07/18 10:21:20;;;;;;;4.95;0.77;;;;;;;27.80;18.11;100623.44;7736324;32;40082;-74
2022/07/18 10:25:37;;;;;;;3.00;0.68;;;;;;;28.12;16.82;100629.72;7735081;32;39590;-72
2022/07/18 10:30:10;;;;;;;5.03;1.20;;;;;;;27.90;16.27;100609.63;7734459;32;38833;-74
2022/07/18 10:34:33;;;;;;;1.40;1.10;;;;;;;28.55;15.50;100613.69;7735505;32;36095;-74
2022/07/18 10:39:34;;;;;;;1.40;0.70;;;;;;;28.83;15.06;100601.31;7736643;32;40075;-75
2022/07/18 10:43:50;;;;;;;4.78;0.60;;;;;;;28.76;13.97;100599.22;7717483;32;39621;-75
2022/07/18 10:48:42;;;;;;;1.98;0.80;;;;;;;28.50;15.07;100599.16;7737243;32;38508;-74
2022/07/18 10:52:59;;;;;;;1.85;0.85;;;;;;;29.33;14.53;100582.44;7716062;32;37219;-74
2022/07/18 10:57:15;;;;;;;1.75;0.70;;;;;;;28.91;14.64;100588.22;7737408;32;39339;-74
2022/07/18 11:01:31;;;;;;;2.72;0.90;;;;;;;30.08;13.85;100574.09;7737173;32;39805;-75
2022/07/18 11:05:55;;;;;;;2.17;0.80;;;;;;;30.68;12.79;100559.00;7737365;32;37613;-74
2022/07/18 11:10:11;;;;;;;1.23;0.70;;;;;;;30.84;12.90;100561.50;7748618;32;36998;-74
2022/07/18 11:15:05;;;;;;;1.85;1.10;;;;;;;30.58;12.71;100554.09;7737034;32;40049;-75
2022/07/18 11:19:25;;;;;;;1.35;0.90;;;;;;;31.04;12.61;100539.50;7736946;32;40884;-75
2022/07/18 11:23:44;;;;;;;5.78;1.25;;;;;;;30.91;11.62;100541.03;7736681;32;38148;-73
2022/07/18 11:28:02;;;;;;;0.50;0.50;;;;;;;30.99;12.64;100539.88;7737121;32;38499;-76
2022/07/18 11:32:21;;;;;;;0.93;0.80;;;;;;;30.82;12.28;100523.69;7739848;32;39435;-75
2022/07/18 11:36:40;;;;;;;1.35;0.65;;;;;;;31.91;12.13;100517.31;7740099;32;38541;-73
2022/07/18 11:40:56;;;;;;;5.07;0.75;;;;;;;31.65;11.38;100522.09;7739527;32;38157;-75
2022/07/18 11:45:14;;;;;;;1.48;0.98;;;;;;;30.81;12.43;100513.62;7739497;32;36709;-74
2022/07/18 11:49:30;;;;;;;4.53;1.00;;;;;;;30.94;11.94;100514.94;7739623;32;39040;-74
2022/07/18 11:53:55;;;;;;;1.00;0.90;;;;;;;30.39;11.76;100506.50;7739758;32;39648;-74
2022/07/18 11:58:13;;;;;;;3.12;0.95;;;;;;;31.09;11.53;100498.91;7739512;32;38604;-75
2022/07/18 12:03:24;;;;;;;3.12;0.95;;;;;;;31.31;11.72;100494.19;7741300;32;37221;-74
2022/07/18 12:07:40;;;;;;;5.25;1.00;;;;;;;32.25;11.06;100488.75;7738640;32;39485;-75
2022/07/18 12:12:07;;;;;;;1.50;0.75;;;;;;;33.05;11.19;100484.59;7752687;32;39951;-74
2022/07/18 12:16:41;;;;;;;2.75;1.08;;;;;;;31.96;11.08;100475.44;7739276;32;38050;-74
2022/07/18 12:21:08;;;;;;;2.20;0.90;;;;;;;31.93;11.27;100475.44;7745625;32;37856;-76
2022/07/18 12:25:41;;;;;;;1.65;0.70;;;;;;;32.61;11.70;100466.16;7738033;32;39450;-74
2022/07/18 12:30:02;;;;;;;2.55;0.80;;;;;;;32.48;11.14;100471.41;7736395;32;40397;-73
2022/07/18 12:34:18;;;;;;;0.87;0.80;;;;;;;32.44;11.06;100470.59;7738922;32;37575;-74
2022/07/18 12:38:34;;;;;;;0.50;0.50;;;;;;;31.68;11.88;100470.56;7753552;32;37280;-74
2022/07/18 12:43:00;;;;;;;1.05;0.80;;;;;;;31.45;12.46;100462.44;7764981;32;39107;-74
2022/07/18 12:47:16;;;;;;;1.20;0.77;;;;;;;32.05;12.69;100458.16;7765334;32;39590;-74
2022/07/18 12:51:32;;;;;;;0.77;0.70;;;;;;;32.61;11.58;100452.06;7765521;32;37721;-71
2022/07/18 12:55:48;;;;;;;1.70;0.80;;;;;;;32.25;11.86;100452.88;7764636;32;36946;-72
2022/07/18 13:00:05;;;;;;;1.33;0.70;;;;;;;31.30;12.55;100450.31;7762442;32;39151;-73
2022/07/18 13:04:21;;;;;;;2.60;1.10;;;;;;;32.20;13.21;100439.19;7764075;32;40809;-73
2022/07/18 13:08:37;;;;;;;3.33;0.88;;;;;;;32.16;12.20;100442.00;7765542;32;37929;-72
2022/07/18 13:12:53;;;;;;;0.70;0.55;;;;;;;32.44;12.27;100437.53;7765845;32;37834;-73
2022/07/18 13:17:09;;;;;;;0.90;0.80;;;;;;;32.00;12.30;100441.59;7765730;32;39587;-75
2022/07/18 13:21:25;;;;;;;1.75;0.70;;;;;;;32.41;12.17;100431.91;7765684;32;39893;-74
2022/07/18 13:25:42;;;;;;;1.42;0.80;;;;;;;32.14;11.90;100433.16;7765562;32;38713;-75
2022/07/18 13:30:00;;;;;;;2.25;0.50;;;;;;;32.65;11.71;100431.09;7765367;32;37117;-76
2022/07/18 13:34:17;;;;;;;0.75;0.70;;;;;;;31.75;12.39;100419.87;7765609;32;39411;-76
2022/07/18 13:38:33;;;;;;;1.30;0.80;;;;;;;31.61;12.78;100411.38;7765512;32;40967;-75
2022/07/18 13:42:49;;;;;;;1.25;0.75;;;;;;;32.08;12.36;100403.78;7765192;32;38861;-76
2022/07/18 13:47:05;;;;;;;0.98;0.50;;;;;;;32.44;12.27;100425.47;7747905;32;37669;-74
2022/07/18 13:51:21;;;;;;;8.90;1.02;;;;;;;33.10;11.66;100416.37;7736542;32;38990;-75
2022/07/18 13:55:37;;;;;;;1.17;0.60;;;;;;;33.36;12.49;100415.06;7747492;32;40574;-75
2022/07/18 13:59:54;;;;;;;1.48;0.80;;;;;;;33.83;11.80;100406.25;7744075;32;38901;-77
2022/07/18 14:04:10;;;;;;;1.92;0.70;;;;;;;33.29;11.18;100407.41;7737737;32;37136;-76
2022/07/18 14:08:26;;;;;;;1.83;0.80;;;;;;;33.15;11.39;100407.50;7753600;32;40619;-76
2022/07/18 14:12:43;;;;;;;4.87;0.80;;;;;;;32.14;12.28;100404.16;7765112;32;40732;-75
2022/07/18 14:16:59;;;;;;;0.70;0.70;;;;;;;32.73;12.18;100395.16;7764373;32;37892;-75
2022/07/18 14:21:15;;;;;;;1.37;0.60;;;;;;;31.71;13.22;100395.69;7764680;32;38037;-75
2022/07/18 14:25:32;;;;;;;1.55;0.70;;;;;;;32.79;12.54;100389.87;7747112;32;39001;-75
2022/07/18 14:29:48;;;;;;;0.98;0.65;;;;;;;33.31;11.49;100393.69;7759504;32;40569;-75
2022/07/18 14:34:04;;;;;;;2.97;0.80;;;;;;;33.12;11.84;100380.84;7764432;32;37585;-73
2022/07/18 14:38:21;;;;;;;1.55;0.70;;;;;;;33.68;11.81;100375.28;7763315;32;37569;-73
2022/07/18 14:42:37;;;;;;;1.85;0.73;;;;;;;33.84;11.10;100373.91;7764479;32;39382;-73
2022/07/18 14:46:53;;;;;;;1.83;0.60;;;;;;;34.45;10.70;100361.22;7764484;32;39993;-74
2022/07/18 14:51:09;;;;;;;1.40;0.80;;;;;;;33.75;11.78;100360.25;7764027;32;38686;-73
2022/07/18 14:55:25;;;;;;;3.15;0.80;;;;;;;32.89;13.07;100360.81;7763984;32;37716;-74
2022/07/18 14:59:41;;;;;;;1.77;0.60;;;;;;;33.19;12.50;100365.91;7763439;32;39407;-72
2022/07/18 15:03:58;;;;;;;3.00;1.00;;;;;;;32.86;13.24;100359.63;7763503;32;39865;-75
2022/07/18 15:08:21;;;;;;;2.58;0.82;;;;;;;33.12;12.34;100354.66;7763526;32;37915;-75
2022/07/18 15:12:38;;;;;;;3.05;0.90;;;;;;;33.06;12.53;100351.44;7763631;32;37043;-76
2022/07/18 15:16:54;;;;;;;2.12;0.85;;;;;;;33.25;11.79;100349.31;7763554;32;39393;-75
2022/07/18 15:21:10;;;;;;;3.17;0.65;;;;;;;33.38;11.84;100347.62;7763449;32;39738;-76
2022/07/18 15:25:26;;;;;;;2.53;0.73;;;;;;;33.81;11.58;100332.37;7763310;32;38067;-76
2022/07/18 15:29:42;;;;;;;2.47;1.00;;;;;;;33.40;11.97;100342.34;7762717;32;37927;-75
2022/07/18 15:33:58;;;;;;;2.05;0.77;;;;;;;34.02;11.14;100329.31;7763727;32;39793;-76
2022/07/18 15:38:15;;;;;;;1.58;0.80;;;;;;;33.32;11.15;100335.16;7762857;32;39605;-76
2022/07/18 15:42:31;;;;;;;1.00;0.68;;;;;;;33.66;11.52;100323.19;7761516;32;37870;-75
2022/07/18 15:46:47;;;;;;;4.93;1.00;;;;;;;33.19;11.13;100326.38;7761332;32;37397;-77
2022/07/18 15:51:03;;;;;;;1.98;0.80;;;;;;;32.27;11.86;100317.91;7762734;32;39445;-77
2022/07/18 15:55:19;;;;;;;3.08;0.70;;;;;;;33.16;11.91;100326.41;7748136;32;39965;-76
2022/07/18 15:59:40;;;;;;;1.62;0.73;;;;;;;33.19;10.87;100322.75;7738733;32;37838;-74
2022/07/18 16:03:56;;;;;;;1.25;0.70;;;;;;;33.19;11.74;100323.56;7752057;32;36999;-74
2022/07/18 16:08:12;;;;;;;2.37;0.95;;;;;;;32.83;10.89;100323.75;7743360;32;39467;-74
2022/07/18 16:12:28;;;;;;;1.10;0.60;;;;;;;32.56;12.28;100317.78;7755285;32;40855;-74
2022/07/18 16:16:44;;;;;;;3.33;0.80;;;;;;;32.59;12.31;100316.19;7764286;32;37901;-74
2022/07/18 16:21:00;;;;;;;0.85;0.40;;;;;;;32.65;12.34;100308.91;7765673;32;36908;-74
2022/07/18 16:25:17;;;;;;;0.93;0.80;;;;;;;32.49;12.36;100304.50;7750023;32;39553;-76
2022/07/18 16:29:33;;;;;;;3.45;0.93;;;;;;;32.61;12.17;100308.13;7756261;32;39962;-74
2022/07/18 16:33:50;;;;;;;2.67;0.62;;;;;;;32.61;12.74;100299.66;7765535;32;38708;-74
2022/07/18 16:38:06;;;;;;;1.05;0.88;;;;;;;32.90;12.93;100305.97;7765589;32;36734;-73
2022/07/18 16:42:23;;;;;;;1.52;0.80;;;;;;;32.72;12.04;100294.78;7765648;32;39032;-74
2022/07/18 16:46:39;;;;;;;13.80;1.70;;;;;;;31.72;12.86;100304.28;7765384;32;40887;-74
2022/07/18 16:50:56;;;;;;;2.53;1.02;;;;;;;32.05;13.63;100300.25;7765477;32;37861;-73
2022/07/18 16:55:12;;;;;;;2.05;0.90;;;;;;;32.10;12.48;100299.84;7765729;32;37900;-74
2022/07/18 16:59:29;;;;;;;1.55;0.80;;;;;;;32.19;12.15;100296.59;7765355;32;39838;-73
2022/07/18 17:03:45;;;;;;;1.75;0.90;;;;;;;31.79;12.41;100301.47;7765328;32;40896;-73
2022/07/18 17:08:02;;;;;;;4.00;2.08;;;;;;;31.33;13.78;100291.81;7765173;32;38842;-74
2022/07/18 17:12:19;;;;;;;6.32;0.85;;;;;;;31.27;13.62;100291.41;7765443;32;37220;-74
2022/07/18 17:16:35;;;;;;;2.15;0.70;;;;;;;30.99;14.66;100302.63;7765208;32;40240;-76
2022/07/18 17:20:51;;;;;;;3.58;0.80;;;;;;;30.99;14.53;100294.97;7755858;32;40765;-76
2022/07/18 17:25:08;;;;;;;3.92;1.10;;;;;;;31.30;14.50;100298.22;7756161;32;37916;-72
2022/07/18 17:29:24;;;;;;;4.62;1.05;;;;;;;31.64;14.02;100297.87;7747549;32;37794;-74
2022/07/18 17:33:40;;;;;;;2.05;1.17;;;;;;;31.55;14.43;100303.12;7749134;32;39517;-75
2022/07/18 17:37:59;;;;;;;2.50;1.10;;;;;;;31.65;14.34;100307.94;7744838;32;40566;-73
2022/07/18 17:42:16;;;;;;;0.50;0.50;;;;;;;31.66;14.04;100309.53;7763967;32;36969;-74
2022/07/18 17:46:33;;;;;;;4.25;0.80;;;;;;;31.68;14.13;100304.28;7749116;32;37890;-73
2022/07/18 17:50:49;;;;;;;1.85;0.70;;;;;;;31.59;14.15;100306.72;7760850;32;40200;-73
2022/07/18 17:55:07;;;;;;;2.97;0.77;;;;;;;31.60;14.45;100311.97;7744653;32;40852;-74
2022/07/18 17:59:23;;;;;;;2.42;0.80;;;;;;;31.48;14.70;100305.88;7745375;32;38157;-77
2022/07/18 18:03:39;;;;;;;0.93;0.60;;;;;;;31.37;15.38;100305.88;7737316;32;37003;-75
2022/07/18 18:07:56;;;;;;;0.70;0.70;;;;;;;31.15;15.15;100311.50;7738243;32;37988;-76
2022/07/18 18:12:12;;;;;;;2.05;1.00;;;;;;;31.00;15.39;100319.13;7747645;32;39654;-73
2022/07/18 18:16:30;;;;;;;5.00;0.90;;;;;;;30.79;15.94;100319.03;7747022;32;37793;-74
2022/07/18 18:20:46;;;;;;;1.55;1.02;;;;;;;30.56;15.93;100317.34;7735873;32;37688;-76
2022/07/18 18:25:03;;;;;;;3.35;1.02;;;;;;;30.38;16.87;100316.47;7763264;32;40066;-73
2022/07/18 18:29:20;;;;;;;4.80;1.30;;;;;;;30.16;15.79;100316.31;7764480;32;40807;-73
2022/07/18 18:33:36;;;;;;;3.80;1.35;;;;;;;30.13;16.45;100329.16;7751760;32;37912;-75
2022/07/18 18:37:53;;;;;;;3.75;2.10;;;;;;;29.98;16.99;100330.28;7750470;32;38050;-74
2022/07/18 18:42:11;;;;;;;6.07;1.50;;;;;;;29.70;17.93;100336.44;7737805;32;40164;-76
2022/07/18 18:46:27;;;;;;;3.05;1.37;;;;;;;29.36;18.38;100336.56;7737695;32;39672;-75
2022/07/18 18:50:43;;;;;;;7.30;1.45;;;;;;;29.16;18.46;100350.00;7755048;32;38053;-74
2022/07/18 18:54:59;;;;;;;6.35;1.70;;;;;;;28.80;19.22;100355.19;7745570;32;37914;-76
2022/07/18 18:59:16;;;;;;;9.30;2.42;;;;;;;28.41;20.01;100347.88;7764469;32;39426;-76
2022/07/18 19:03:32;;;;;;;10.27;2.28;;;;;;;28.25;20.30;100364.03;7749533;32;40784;-73
2022/07/18 19:07:49;;;;;;;4.50;1.30;;;;;;;28.05;20.66;100368.97;7743280;32;38133;-75
2022/07/18 19:12:06;;;;;;;2.53;1.00;;;;;;;27.89;21.32;100364.28;7741747;32;37831;-74
2022/07/18 19:16:22;;;;;;;4.78;1.23;;;;;;;27.77;21.80;100378.50;7760246;32;40108;-76
2022/07/18 19:20:38;;;;;;;14.65;2.10;;;;;;;27.44;22.69;100376.31;7763767;32;40443;-75
2022/07/18 19:24:55;;;;;;;4.12;1.40;;;;;;;27.28;22.98;100377.22;7765218;32;37726;-76
2022/07/18 19:29:11;;;;;;;6.62;1.35;;;;;;;26.96;23.33;100380.19;7736815;32;37707;-76
2022/07/18 19:33:27;;;;;;;3.22;1.30;;;;;;;26.95;23.24;100378.56;7741581;32;39547;-75
2022/07/18 19:37:45;;;;;;;1.12;1.00;;;;;;;26.62;23.72;100387.47;7752298;32;40717;-73
2022/07/18 19:42:01;;;;;;;2.75;0.90;;;;;;;26.65;22.69;100392.34;7750829;32;38779;-74
2022/07/18 19:46:17;;;;;;;1.83;0.90;;;;;;;26.55;22.39;100378.91;7738773;32;37313;-72
2022/07/18 19:50:34;;;;;;;1.75;1.00;;;;;;;26.37;22.62;100381.28;7752818;32;39231;-74
2022/07/18 19:54:50;;;;;;;2.10;0.80;;;;;;;26.29;22.43;100380.34;7761425;32;39601;-74
2022/07/18 19:59:06;;;;;;;2.53;0.90;;;;;;;26.24;22.54;100383.41;7770271;32;38047;-74